Matsuyama, Japan

8:01 PM JST on December 18, 2014 (GMT +0900)
Iwakuni Marine Corps Air Station | Change Station
CLOSE
Current Station
Airport
Location: Iwakuni MCAS,
Elevation: 7 ft
Nearby Weather Stations

Elev 7 ft 34.14 °N, 132.24 °E | Updated 6 minutes ago

Mostly Cloudy
Mostly Cloudy
35 °F
Feels Like 30 °F
N
6
Wind Variable Wind from NW

Today
High -- | Low -- °F
--% Chance of Precip.
Yesterday
High -- | Low -- °F
Precip. -- in
7:07 AM 5:02 PM
Waning Crescent, 15% visible
Pressure 30.47 in
Visibility 6.2 miles
Clouds Few 2000 ft
Mostly Cloudy 4000 ft
Windchill 30 °F
Dew Point 26 °F
Humidity 70%
Rainfall 0.00 in
Snow Depth Not available.
UV 0 out of 12
Pollen Not available.
Air Quality Not available.
Flu Activity Not available.
METAR RJOI 181055Z 31005KT 9999 FEW020 BKN040 02/M03 A3046 RMK SLP316 T00171033

More Conditions Fewer Conditions

Pressure 30.47 in
Visibility 6.2 miles
Clouds Few 2000 ft
Mostly Cloudy 4000 ft
Windchill 30 °F
Dew Point 26 °F
Humidity 70%
Rainfall 0.00 in
Snow Depth Not available.
UV 0 out of 12
Pollen Not available.
Air Quality Not available.
Flu Activity Not available.
METAR RJOI 181055Z 31005KT 9999 FEW020 BKN040 02/M03 A3046 RMK SLP316 T00171033

More Conditions Fewer Conditions

10-Day Weather Forecast

Almanac

Astronomy

Dec. 18, 2014 Rise Set
Actual Time
Civil Twilight
Nautical Twilight
Astronomical Twilight
Moon
Length of Visible Light
Length of Day
Tomorrow will be .
, % of the Moon is Illuminated

Today's Extremes

Country Highs Country Lows

Community

WunderPhotos

Upload Photos

1,778,917 photos uploaded!

WunderBlogs® & News

Nearby

Air Quality

  Air Quality AQ Index Pollutant
Not available.

Snow Depth

Station Depth Elevation

Earthquake Activity

City Distance Mag. Time & Date
Minimum magnitude displayed is 2.5.

Coastal Water Temperatures

Place Temperature

Nearby Weather Stations